createdAt,value
2018-03-02T00:00:02.479Z,0
2018-03-02T00:01:02.482Z,0
2018-03-02T00:02:02.485Z,0
2018-03-02T00:03:02.239Z,0
2018-03-02T00:04:02.509Z,0
2018-03-02T00:05:16.762Z,0
2018-03-02T00:06:02.262Z,0
2018-03-02T00:07:02.537Z,0
2018-03-02T00:08:02.540Z,0
2018-03-02T00:09:02.286Z,0
2018-03-02T00:10:17.499Z,0
2018-03-02T00:11:02.561Z,0
2018-03-02T00:12:02.307Z,0
2018-03-02T00:13:02.571Z,0
2018-03-02T00:14:02.579Z,0
2018-03-02T00:15:02.331Z,0
2018-03-02T00:17:02.365Z,0
2018-03-02T00:18:02.354Z,0
2018-03-02T00:19:02.628Z,0
2018-03-02T00:20:02.623Z,0
2018-03-02T00:21:17.296Z,0
2018-03-02T00:22:17.048Z,0
2018-03-02T00:23:02.700Z,0
2018-03-02T00:24:02.401Z,0
2018-03-02T00:25:17.068Z,0
2018-03-02T00:26:02.424Z,0
2018-03-02T00:27:02.422Z,0
2018-03-02T00:28:02.694Z,0
2018-03-02T00:29:02.482Z,0
2018-03-02T00:30:02.446Z,0
2018-03-02T00:33:02.221Z,0
2018-03-02T00:34:17.397Z,0
2018-03-02T00:35:02.481Z,0
2018-03-02T00:36:02.534Z,0
2018-03-02T00:37:17.414Z,0
2018-03-02T00:38:02.757Z,0
2018-03-02T00:39:02.518Z,0
2018-03-02T00:40:02.781Z,0
2018-03-02T00:41:02.782Z,0
2018-03-02T00:42:02.278Z,0
2018-03-02T00:43:02.540Z,0
2018-03-02T00:44:02.820Z,0
2018-03-02T00:45:02.299Z,0
2018-03-02T00:46:02.822Z,0
2018-03-02T00:47:02.612Z,0
2018-03-02T00:48:02.582Z,0
2018-03-02T00:49:02.337Z,0
2018-03-02T00:50:02.869Z,0
2018-03-02T00:51:02.854Z,0
2018-03-02T00:52:17.532Z,0
2018-03-02T00:54:17.542Z,0
2018-03-02T00:55:17.552Z,0
2018-03-02T00:56:02.893Z,0
2018-03-02T00:57:02.645Z,0
2018-03-02T00:58:02.942Z,0
2018-03-02T00:59:02.929Z,0
2018-03-02T01:00:02.932Z,0
2018-03-02T01:01:02.931Z,0
2018-03-02T01:02:02.962Z,0
2018-03-02T01:03:02.951Z,0
2018-03-02T01:04:17.624Z,0
2018-03-02T01:05:02.986Z,0
2018-03-02T01:06:02.708Z,0
2018-03-02T01:07:17.645Z,0
2018-03-02T01:08:02.986Z,0
2018-03-02T01:09:02.739Z,0
2018-03-02T01:10:02.740Z,0
2018-03-02T01:11:03.004Z,0
2018-03-02T01:12:02.759Z,0
2018-03-02T01:14:03.027Z,0
2018-03-02T01:15:02.528Z,0
2018-03-02T01:16:03.044Z,0
2018-03-02T01:17:03.049Z,0
2018-03-02T01:18:02.806Z,0
2018-03-02T01:19:03.065Z,0
2018-03-02T01:20:03.071Z,0
2018-03-02T01:21:02.827Z,0
2018-03-02T01:23:03.094Z,0
2018-03-02T01:24:17.511Z,0
2018-03-02T01:25:02.853Z,0
2018-03-02T01:26:03.121Z,0
2018-03-02T01:27:02.873Z,0
2018-03-02T01:28:03.133Z,0
2018-03-02T01:29:03.144Z,0
2018-03-02T01:30:02.898Z,0
2018-03-02T01:31:03.154Z,0
2018-03-02T01:32:03.163Z,0
2018-03-02T01:33:02.915Z,0
2018-03-02T01:34:03.176Z,0
2018-03-02T01:36:03.197Z,0
2018-03-02T01:38:03.208Z,0
2018-03-02T01:39:03.321Z,0
2018-03-02T01:40:17.891Z,0
2018-03-02T01:41:03.234Z,0
2018-03-02T01:42:02.990Z,0
2018-03-02T01:43:03.245Z,0
2018-03-02T01:44:03.263Z,0
2018-03-02T01:45:03.274Z,0
2018-03-02T01:46:03.266Z,0
2018-03-02T01:47:03.015Z,0
2018-03-02T01:48:03.277Z,0
2018-03-02T01:49:03.288Z,0
2018-03-02T01:50:03.297Z,0
2018-03-02T01:51:03.302Z,0
2018-03-02T01:52:17.982Z,0
2018-03-02T01:53:03.062Z,0
2018-03-02T01:54:03.327Z,0
2018-03-02T01:55:03.076Z,0
2018-03-02T01:56:18.006Z,0
2018-03-02T01:57:18.018Z,0
2018-03-02T01:58:03.100Z,0
2018-03-02T01:59:03.370Z,0
2018-03-02T02:00:17.785Z,0
2018-03-02T02:01:17.527Z,0
2018-03-02T02:03:03.128Z,0
2018-03-02T02:04:03.390Z,0
2018-03-02T02:05:03.401Z,0
2018-03-02T02:06:02.896Z,0
2018-03-02T02:07:03.159Z,0
2018-03-02T02:08:03.169Z,0
2018-03-02T02:09:03.431Z,0
2018-03-02T02:10:03.485Z,0
2018-03-02T02:11:02.932Z,0
2018-03-02T02:12:18.118Z,0
2018-03-02T02:13:03.461Z,0
2018-03-02T02:14:17.879Z,0
2018-03-02T02:15:03.218Z,0
2018-03-02T02:16:18.152Z,0
2018-03-02T02:17:03.499Z,0
2018-03-02T02:18:03.492Z,0
2018-03-02T02:19:03.511Z,0
2018-03-02T02:20:03.319Z,0
2018-03-02T02:21:03.516Z,0
2018-03-02T02:22:03.541Z,0
2018-03-02T02:23:03.533Z,0
2018-03-02T02:24:03.285Z,0
2018-03-02T02:25:03.547Z,0
2018-03-02T02:26:03.578Z,0
2018-03-02T02:27:17.979Z,0
2018-03-02T02:28:03.570Z,0
2018-03-02T02:29:03.574Z,0
2018-03-02T02:30:03.585Z,0
2018-03-02T02:31:03.602Z,0
2018-03-02T02:32:03.354Z,0
2018-03-02T02:33:03.349Z,0
2018-03-02T02:34:18.025Z,0
2018-03-02T02:35:03.627Z,0
2018-03-02T02:36:03.647Z,0
2018-03-02T02:37:03.383Z,0
2018-03-02T02:38:03.399Z,0
2018-03-02T02:39:03.668Z,0
2018-03-02T02:40:03.657Z,0
2018-03-02T02:41:03.669Z,0
2018-03-02T02:42:03.420Z,0
2018-03-02T02:43:03.681Z,0
2018-03-02T02:44:18.102Z,0
2018-03-02T02:45:03.701Z,0
2018-03-02T02:46:03.711Z,0
2018-03-02T02:48:17.872Z,0
2018-03-02T02:49:03.734Z,0
2018-03-02T02:50:03.765Z,0
2018-03-02T02:51:18.147Z,0
2018-03-02T02:52:03.490Z,0
2018-03-02T02:53:03.502Z,0
2018-03-02T02:54:03.767Z,0
2018-03-02T02:55:03.794Z,0
2018-03-02T02:56:03.788Z,0
2018-03-02T02:57:03.788Z,0
2018-03-02T02:58:18.463Z,0
2018-03-02T02:59:18.209Z,0
2018-03-02T03:00:03.828Z,0
2018-03-02T03:01:03.812Z,0
2018-03-02T03:02:18.488Z,0
2018-03-02T03:03:03.584Z,0
2018-03-02T03:04:03.846Z,0
2018-03-02T03:05:03.859Z,0
2018-03-02T03:06:03.592Z,0
2018-03-02T03:07:18.265Z,0
2018-03-02T03:08:03.607Z,0
2018-03-02T03:09:03.868Z,0
2018-03-02T03:10:03.621Z,0
2018-03-02T03:11:03.883Z,0
2018-03-02T03:12:03.377Z,0
2018-03-02T03:13:03.893Z,0
2018-03-02T03:14:03.652Z,0
2018-03-02T03:15:18.582Z,0
2018-03-02T03:16:03.978Z,0
2018-03-02T03:17:03.161Z,0
2018-03-02T03:18:18.681Z,0
2018-03-02T03:19:03.693Z,0
2018-03-02T03:20:18.612Z,0
2018-03-02T03:21:03.951Z,0
2018-03-02T03:22:03.961Z,0
2018-03-02T03:23:03.968Z,0
2018-03-02T03:24:03.972Z,0
2018-03-02T03:25:03.994Z,0
2018-03-02T03:26:03.735Z,0
2018-03-02T03:27:03.488Z,0
2018-03-02T03:29:04.010Z,0
2018-03-02T03:30:03.775Z,0
2018-03-02T03:31:18.709Z,0
2018-03-02T03:32:04.031Z,0
2018-03-02T03:33:18.456Z,0
2018-03-02T03:34:04.087Z,0
2018-03-02T03:35:18.722Z,0
2018-03-02T03:36:04.062Z,0
2018-03-02T03:37:03.813Z,0
2018-03-02T03:38:04.078Z,0
2018-03-02T03:39:04.089Z,0
2018-03-02T03:40:04.192Z,0
2018-03-02T03:41:04.101Z,0
2018-03-02T03:42:04.103Z,0
2018-03-02T03:43:04.115Z,0
2018-03-02T03:44:04.118Z,0
2018-03-02T03:45:04.129Z,0
2018-03-02T03:46:04.139Z,0
2018-03-02T03:47:18.810Z,0
2018-03-02T03:48:04.148Z,0
2018-03-02T03:49:04.169Z,0
2018-03-02T03:50:18.832Z,0
2018-03-02T03:51:04.178Z,0
2018-03-02T03:52:04.177Z,0
2018-03-02T03:53:04.193Z,0
2018-03-02T03:54:03.934Z,0
2018-03-02T03:55:18.867Z,0
2018-03-02T03:57:04.226Z,0
2018-03-02T03:58:04.223Z,0
2018-03-02T03:59:04.230Z,0
2018-03-02T04:00:03.980Z,0
2018-03-02T04:01:04.249Z,0
2018-03-02T04:02:18.923Z,0
2018-03-02T04:03:04.302Z,0
2018-03-02T04:04:04.263Z,0
2018-03-02T04:05:04.020Z,0
2018-03-02T04:06:04.282Z,0
2018-03-02T04:07:04.036Z,0
2018-03-02T04:08:04.291Z,0
2018-03-02T04:09:18.969Z,0
2018-03-02T04:10:04.312Z,0
2018-03-02T04:12:04.329Z,0
2018-03-02T04:13:04.073Z,0
2018-03-02T04:14:03.828Z,0
2018-03-02T04:15:04.352Z,0
2018-03-02T04:16:04.354Z,0
2018-03-02T04:17:04.360Z,0
2018-03-02T04:18:19.040Z,0
2018-03-02T04:19:19.043Z,0
2018-03-02T04:20:04.394Z,0
2018-03-02T04:21:04.393Z,0
2018-03-02T04:22:18.807Z,0
2018-03-02T04:23:04.403Z,0
2018-03-02T04:24:04.157Z,0
2018-03-02T04:25:04.166Z,0
2018-03-02T04:26:04.426Z,0
2018-03-02T04:27:19.096Z,0
2018-03-02T04:28:04.434Z,0
2018-03-02T04:29:04.454Z,0
2018-03-02T04:30:04.461Z,0
2018-03-02T04:31:04.475Z,0
2018-03-02T04:32:04.470Z,0
2018-03-02T04:33:04.474Z,0
2018-03-02T04:34:18.892Z,0
2018-03-02T04:35:19.161Z,0
2018-03-02T04:36:04.239Z,0
2018-03-02T04:38:18.925Z,0
2018-03-02T04:39:19.182Z,0
2018-03-02T04:40:04.534Z,0
2018-03-02T04:41:04.539Z,0
2018-03-02T04:42:04.541Z,0
2018-03-02T04:43:04.552Z,0
2018-03-02T04:44:04.295Z,0
2018-03-02T04:45:04.304Z,0
2018-03-02T04:46:04.312Z,0
2018-03-02T04:47:04.572Z,0
2018-03-02T04:48:04.583Z,0
2018-03-02T04:49:04.355Z,0
2018-03-02T04:50:19.261Z,0
2018-03-02T04:51:04.602Z,0
2018-03-02T04:52:04.608Z,0
2018-03-02T04:53:04.615Z,0
2018-03-02T04:54:04.629Z,0
2018-03-02T04:55:19.296Z,0
2018-03-02T04:56:04.640Z,0
2018-03-02T04:57:04.393Z,0
2018-03-02T04:58:19.320Z,0
2018-03-02T04:59:04.658Z,0
2018-03-02T05:00:04.410Z,0
2018-03-02T05:01:04.673Z,0
2018-03-02T05:02:03.917Z,0
2018-03-02T05:03:04.440Z,0
2018-03-02T05:04:04.697Z,0
2018-03-02T05:05:04.736Z,0
2018-03-02T05:06:19.376Z,0
2018-03-02T05:07:04.728Z,0
2018-03-02T05:08:04.467Z,0
2018-03-02T05:09:19.145Z,0
2018-03-02T05:10:19.404Z,0
2018-03-02T05:11:04.751Z,0
2018-03-02T05:12:04.759Z,4
2018-03-02T05:13:04.505Z,0
2018-03-02T05:14:04.770Z,0
2018-03-02T05:15:04.519Z,4
2018-03-02T05:16:04.783Z,0
2018-03-02T05:17:04.784Z,4
2018-03-02T05:18:04.795Z,4
2018-03-02T05:19:04.801Z,0
2018-03-02T05:20:04.811Z,8
2018-03-02T05:21:04.332Z,4
2018-03-02T05:22:19.233Z,8
2018-03-02T05:23:04.318Z,8
2018-03-02T05:24:04.585Z,12
2018-03-02T05:25:04.886Z,12
2018-03-02T05:26:04.598Z,12
2018-03-02T05:27:04.351Z,16
2018-03-02T05:29:19.539Z,24
2018-03-02T05:30:04.370Z,24
2018-03-02T05:31:04.902Z,32
2018-03-02T05:32:04.895Z,36
2018-03-02T05:33:04.645Z,40
2018-03-02T05:34:04.913Z,52
2018-03-02T05:35:04.920Z,60
2018-03-02T05:36:04.666Z,64
2018-03-02T05:37:19.343Z,80
2018-03-02T05:38:04.681Z,84
2018-03-02T05:39:04.943Z,100
2018-03-02T05:40:19.621Z,112
2018-03-02T05:41:04.959Z,124
2018-03-02T05:42:04.710Z,140
2018-03-02T05:43:05.074Z,156
2018-03-02T05:44:04.521Z,172
2018-03-02T05:45:04.733Z,192
2018-03-02T05:46:04.487Z,212
2018-03-02T05:47:04.745Z,236
2018-03-02T05:48:04.752Z,260
2018-03-02T05:49:05.011Z,284
2018-03-02T05:50:04.773Z,308
2018-03-02T05:51:04.770Z,336
2018-03-02T05:52:05.036Z,364
2018-03-02T05:53:04.786Z,396
2018-03-02T05:54:04.793Z,432
2018-03-02T05:55:04.801Z,464
2018-03-02T05:56:19.729Z,512
2018-03-02T05:57:19.740Z,552
2018-03-02T05:58:19.743Z,592
2018-03-02T05:59:05.087Z,624
2018-03-02T06:00:04.838Z,672
2018-03-02T06:01:04.592Z,720
2018-03-02T06:02:04.859Z,772
2018-03-02T06:03:04.856Z,824
2018-03-02T06:04:05.122Z,884
2018-03-02T06:05:04.872Z,944
2018-03-02T06:06:04.879Z,1004
2018-03-02T06:07:04.885Z,1068
2018-03-02T06:08:05.146Z,1136
2018-03-02T06:09:19.824Z,1224
2018-03-02T06:10:05.169Z,1280
2018-03-02T06:11:19.584Z,1380
2018-03-02T06:12:19.844Z,1464
2018-03-02T06:13:05.189Z,1536
2018-03-02T06:15:05.198Z,1728
2018-03-02T06:16:19.616Z,1852
2018-03-02T06:17:19.877Z,1960
2018-03-02T06:18:05.217Z,2052
2018-03-02T06:19:05.227Z,2264
2018-03-02T06:20:05.242Z,2492
2018-03-02T06:21:04.988Z,2780
2018-03-02T06:22:05.253Z,3216
2018-03-02T06:23:05.257Z,3828
2018-03-02T06:24:05.311Z,4444
2018-03-02T06:25:19.939Z,4960
2018-03-02T06:26:04.766Z,5004
2018-03-02T06:27:05.288Z,5172
2018-03-02T06:28:19.960Z,5256
2018-03-02T06:29:04.789Z,5268
2018-03-02T06:30:04.803Z,5772
2018-03-02T06:32:05.118Z,6752
2018-03-02T06:33:05.084Z,7212
2018-03-02T06:34:05.343Z,7788
2018-03-02T06:35:05.098Z,8064
2018-03-02T06:36:05.371Z,8376
2018-03-02T06:37:05.466Z,8876
2018-03-02T06:38:04.864Z,9600
2018-03-02T06:39:04.873Z,10496
2018-03-02T06:40:04.882Z,10656
2018-03-02T06:41:20.072Z,11840
2018-03-02T06:42:05.448Z,11968
2018-03-02T06:43:19.837Z,12384
2018-03-02T06:44:05.428Z,12608
2018-03-02T06:45:05.184Z,12448
2018-03-02T06:46:05.200Z,13024
2018-03-02T06:47:05.557Z,13376
2018-03-02T06:48:19.884Z,13856
2018-03-02T06:49:20.149Z,13920
2018-03-02T06:50:04.990Z,14144
2018-03-02T06:51:05.505Z,14688
2018-03-02T06:52:05.258Z,14720
2018-03-02T06:53:05.522Z,14912
2018-03-02T06:54:05.532Z,15584
2018-03-02T06:55:05.291Z,16384
2018-03-02T06:56:05.299Z,17184
2018-03-02T06:57:20.241Z,17216
2018-03-02T06:59:05.337Z,18112
2018-03-02T07:00:05.605Z,19040
2018-03-02T07:01:05.364Z,19424
2018-03-02T07:02:05.378Z,20032
2018-03-02T07:03:05.124Z,20384
2018-03-02T07:04:20.061Z,21440
2018-03-02T07:05:05.407Z,20800
2018-03-02T07:06:05.676Z,21184
2018-03-02T07:07:05.688Z,21920
2018-03-02T07:08:05.444Z,21920
2018-03-02T07:09:05.707Z,23072
2018-03-02T07:10:05.720Z,23520
2018-03-02T07:11:20.155Z,23840
2018-03-02T07:12:20.420Z,24320
2018-03-02T07:14:05.260Z,24736
2018-03-02T07:15:20.198Z,26080
2018-03-02T07:16:05.287Z,25216
2018-03-02T07:17:05.558Z,24992
2018-03-02T07:18:05.821Z,27456
2018-03-02T07:19:05.837Z,27296
2018-03-02T07:20:05.597Z,27936
2018-03-02T07:21:20.529Z,28608
2018-03-02T07:22:05.871Z,29152
2018-03-02T07:23:05.883Z,29632
2018-03-02T07:24:05.910Z,30208
2018-03-02T07:25:05.912Z,31328
2018-03-02T07:26:05.415Z,32448
2018-03-02T07:28:05.950Z,33056
2018-03-02T07:29:05.966Z,32576
2018-03-02T07:30:05.728Z,32512
2018-03-02T07:31:05.483Z,32960
2018-03-02T07:32:06.012Z,33760
2018-03-02T07:33:20.686Z,34240
2018-03-02T07:34:06.040Z,33536
2018-03-02T07:35:06.065Z,32928
2018-03-02T07:36:06.067Z,33568
2018-03-02T07:37:06.072Z,33408
2018-03-02T07:38:06.084Z,32544
2018-03-02T07:39:06.098Z,32032
2018-03-02T07:40:05.856Z,33024
2018-03-02T07:41:06.132Z,34112
2018-03-02T07:42:20.813Z,34560
2018-03-02T07:43:05.899Z,33792
2018-03-02T07:44:35.531Z,35328
2018-03-02T07:45:05.928Z,36576
2018-03-02T07:46:20.605Z,37312
2018-03-02T07:47:20.873Z,36256
2018-03-02T07:48:20.886Z,35840
2018-03-02T07:49:05.980Z,37280
2018-03-02T07:50:05.481Z,37920
2018-03-02T07:51:20.929Z,37568
2018-03-02T07:52:06.271Z,36832
2018-03-02T07:53:06.028Z,37536
2018-03-02T07:54:06.042Z,37856
2018-03-02T07:55:06.309Z,36736
2018-03-02T07:56:06.327Z,38240
2018-03-02T07:57:06.167Z,39712
2018-03-02T07:58:06.093Z,38656
2018-03-02T07:59:05.851Z,39008
2018-03-02T08:00:35.725Z,38112
2018-03-02T08:01:06.394Z,38208
2018-03-02T08:02:06.148Z,38688
2018-03-02T08:03:21.084Z,39520
2018-03-02T08:04:06.441Z,39840
2018-03-02T08:05:21.113Z,37152
2018-03-02T08:06:06.201Z,37312
2018-03-02T08:07:06.211Z,39328
2018-03-02T08:08:06.489Z,38912
2018-03-02T08:09:06.494Z,36800
2018-03-02T08:10:06.508Z,37056
2018-03-02T08:11:06.523Z,36960
2018-03-02T08:12:06.531Z,36832
2018-03-02T08:13:06.317Z,38080
2018-03-02T08:14:06.557Z,35136
2018-03-02T08:15:06.573Z,36768
2018-03-02T08:16:21.339Z,37088
2018-03-02T08:17:06.606Z,36256
2018-03-02T08:18:06.604Z,36832
2018-03-02T08:20:21.045Z,35584
2018-03-02T08:21:06.131Z,36640
2018-03-02T08:22:06.755Z,37184
2018-03-02T08:23:06.716Z,37280
2018-03-02T08:24:06.679Z,35744
2018-03-02T08:25:06.699Z,35424
2018-03-02T08:26:06.909Z,35328
2018-03-02T08:27:06.458Z,35904
2018-03-02T08:28:06.735Z,36128
2018-03-02T08:29:06.744Z,36096
2018-03-02T08:30:06.755Z,35360
2018-03-02T08:31:06.253Z,35808
2018-03-02T08:32:21.191Z,36288
2018-03-02T08:33:06.023Z,36160
2018-03-02T08:34:06.801Z,35808
2018-03-02T08:35:06.559Z,34368
2018-03-02T08:36:06.575Z,33632
2018-03-02T08:37:06.650Z,33248
2018-03-02T08:38:06.593Z,34112
2018-03-02T08:39:06.865Z,34848
2018-03-02T08:40:21.286Z,33440
2018-03-02T08:41:06.908Z,34112
2018-03-02T08:42:06.897Z,33312
2018-03-02T08:43:06.911Z,31648
2018-03-02T08:44:06.923Z,31296
2018-03-02T08:45:06.938Z,31168
2018-03-02T08:46:06.948Z,29984
2018-03-02T08:47:21.629Z,28704
2018-03-02T08:48:06.970Z,29824
2018-03-02T08:51:07.113Z,29664
2018-03-02T08:52:06.771Z,28992
2018-03-02T08:53:07.032Z,28576
2018-03-02T08:54:07.047Z,28864
2018-03-02T08:55:07.060Z,28352
2018-03-02T08:56:07.066Z,28864
2018-03-02T08:57:06.830Z,29184
2018-03-02T08:58:06.845Z,27872
2018-03-02T08:59:07.110Z,25632
2018-03-02T09:00:06.868Z,25760
2018-03-02T09:01:06.886Z,25472
2018-03-02T09:02:07.142Z,25024
2018-03-02T09:03:06.645Z,24800
2018-03-02T09:04:07.172Z,23936
2018-03-02T09:05:06.926Z,24384
2018-03-02T09:08:21.886Z,25760
2018-03-02T09:09:21.645Z,26016
2018-03-02T09:10:21.909Z,26464
2018-03-02T09:11:06.995Z,27744
2018-03-02T09:12:07.013Z,26208
2018-03-02T09:13:07.021Z,23872
2018-03-02T09:14:07.033Z,22848
2018-03-02T09:15:06.796Z,22848
2018-03-02T09:16:07.061Z,22368
2018-03-02T09:17:07.331Z,21920
2018-03-02T09:18:07.339Z,21120
2018-03-02T09:19:22.023Z,20736
2018-03-02T09:20:07.364Z,20352
2018-03-02T09:21:07.375Z,20160
2018-03-02T09:22:07.392Z,20128
2018-03-02T09:23:22.067Z,19904
2018-03-02T09:24:07.157Z,19840
2018-03-02T09:25:07.169Z,19584
2018-03-02T09:26:07.439Z,19296
2018-03-02T09:27:07.452Z,19488
2018-03-02T09:28:07.472Z,19712
2018-03-02T09:29:07.230Z,19232
2018-03-02T09:30:07.446Z,19008
2018-03-02T09:31:07.251Z,18848
2018-03-02T09:32:07.259Z,18688
2018-03-02T09:33:07.526Z,18464
2018-03-02T09:34:07.544Z,18528
2018-03-02T09:35:22.218Z,18016
2018-03-02T09:36:07.576Z,18304
2018-03-02T09:37:07.320Z,17888
2018-03-02T09:38:07.432Z,17824
2018-03-02T09:39:07.347Z,18048
2018-03-02T09:40:22.027Z,17632
2018-03-02T09:41:07.369Z,17472
2018-03-02T09:42:07.385Z,17312
2018-03-02T09:43:22.322Z,17216
2018-03-02T09:44:07.661Z,17376
2018-03-02T09:45:07.420Z,16864
2018-03-02T09:46:07.433Z,16832
2018-03-02T09:47:22.371Z,16736
2018-03-02T09:48:07.463Z,16800
2018-03-02T09:49:07.724Z,16392
2018-03-02T09:50:07.487Z,16532
2018-03-02T09:51:22.420Z,16336
2018-03-02T09:52:07.766Z,16264
2018-03-02T09:53:07.525Z,16048
2018-03-02T09:54:07.845Z,16004
2018-03-02T09:55:22.215Z,16072
2018-03-02T09:56:07.822Z,15904
2018-03-02T09:57:07.571Z,16068
2018-03-02T09:58:07.598Z,15936
2018-03-02T09:59:07.087Z,15908
2018-03-02T10:00:07.355Z,15768
2018-03-02T10:01:07.706Z,15472
2018-03-02T10:02:07.634Z,15672
2018-03-02T10:03:07.647Z,15596
2018-03-02T10:04:07.665Z,16036
2018-03-02T10:05:07.419Z,15424
2018-03-02T10:06:07.176Z,15896
2018-03-02T10:07:22.622Z,15592
2018-03-02T10:08:07.968Z,15680
2018-03-02T10:09:07.727Z,15192
2018-03-02T10:10:22.414Z,15044
2018-03-02T10:11:07.495Z,15484
2018-03-02T10:12:07.766Z,15220
2018-03-02T10:13:08.031Z,15012
2018-03-02T10:14:07.787Z,14868
2018-03-02T10:15:07.797Z,14720
2018-03-02T10:16:08.068Z,14576
2018-03-02T10:17:07.832Z,14700
2018-03-02T10:18:08.142Z,14868
2018-03-02T10:19:08.107Z,14712
2018-03-02T10:20:07.612Z,14520
2018-03-02T10:21:07.887Z,14372
2018-03-02T10:22:22.875Z,13844
2018-03-02T10:23:08.160Z,14152
2018-03-02T10:24:07.915Z,14100
2018-03-02T10:26:08.206Z,13916
2018-03-02T10:27:08.214Z,13736
2018-03-02T10:28:08.225Z,13996
2018-03-02T10:29:08.243Z,13812
2018-03-02T10:30:07.998Z,13464
2018-03-02T10:31:08.004Z,13400
2018-03-02T10:32:08.276Z,13192
2018-03-02T10:33:22.963Z,12952
2018-03-02T10:34:08.046Z,12620
2018-03-02T10:35:07.799Z,12868
2018-03-02T10:36:08.327Z,12688
2018-03-02T10:37:08.079Z,12400
2018-03-02T10:38:08.100Z,12288
2018-03-02T10:39:08.364Z,11720
2018-03-02T10:40:07.860Z,11312
2018-03-02T10:41:23.054Z,10640
2018-03-02T10:42:23.063Z,10500
2018-03-02T10:43:08.149Z,10332
2018-03-02T10:44:08.172Z,9980
2018-03-02T10:45:08.432Z,9656
2018-03-02T10:46:08.446Z,9424
2018-03-02T10:48:07.955Z,8940
2018-03-02T10:49:08.486Z,8820
2018-03-02T10:50:07.979Z,8640
2018-03-02T10:51:08.504Z,8388
2018-03-02T10:52:08.522Z,8188
2018-03-02T10:53:08.530Z,7948
2018-03-02T10:54:23.202Z,7692
2018-03-02T10:55:08.295Z,7560
2018-03-02T10:56:08.305Z,7472
2018-03-02T10:57:23.237Z,7268
2018-03-02T10:59:23.263Z,7152
2018-03-02T11:00:08.149Z,7076
2018-03-02T11:01:23.027Z,6988
2018-03-02T11:02:08.658Z,6904
2018-03-02T11:03:08.647Z,6836
2018-03-02T11:04:08.650Z,6796
2018-03-02T11:05:08.404Z,6740
2018-03-02T11:06:08.415Z,6676
2018-03-02T11:07:08.432Z,6652
2018-03-02T11:08:08.824Z,6560
2018-03-02T11:09:08.751Z,6564
2018-03-02T11:10:23.384Z,6524
2018-03-02T11:11:23.413Z,6480
2018-03-02T11:12:23.408Z,6480
2018-03-02T11:13:23.417Z,6460
2018-03-02T11:14:08.517Z,6428
2018-03-02T11:15:23.442Z,6404
2018-03-02T11:16:23.196Z,6404
2018-03-02T11:17:23.207Z,6388
2018-03-02T11:18:08.551Z,6392
2018-03-02T11:19:08.560Z,6384
2018-03-02T11:20:08.826Z,6376
2018-03-02T11:21:08.328Z,6344
2018-03-02T11:22:08.598Z,6300
2018-03-02T11:23:08.858Z,6232
2018-03-02T11:24:08.614Z,6196
2018-03-02T11:25:08.635Z,6160
2018-03-02T11:26:23.316Z,6196
2018-03-02T11:27:08.903Z,6212
2018-03-02T11:28:09.027Z,6136
2018-03-02T11:29:09.036Z,6112
2018-03-02T11:30:23.662Z,6084
2018-03-02T11:32:08.197Z,6068
2018-03-02T11:33:08.971Z,6100
2018-03-02T11:34:08.724Z,6124
2018-03-02T11:35:08.992Z,6144
2018-03-02T11:36:09.002Z,6160
2018-03-02T11:37:08.758Z,6132
2018-03-02T11:38:09.024Z,6100
2018-03-02T11:39:09.040Z,6064
2018-03-02T11:40:09.047Z,6088
2018-03-02T11:41:09.072Z,6072
2018-03-02T11:42:23.482Z,6004
2018-03-02T11:43:09.085Z,5988
2018-03-02T11:44:09.098Z,6004
2018-03-02T11:45:08.859Z,5976
2018-03-02T11:46:09.117Z,5972
2018-03-02T11:47:09.019Z,5940
2018-03-02T11:48:09.146Z,5928
2018-03-02T11:49:23.814Z,5828
2018-03-02T11:50:08.648Z,5772
2018-03-02T11:51:08.912Z,5768
2018-03-02T11:52:08.668Z,5796
2018-03-02T11:53:09.205Z,5788
2018-03-02T11:54:09.211Z,5792
2018-03-02T11:56:09.226Z,5848
2018-03-02T11:57:23.648Z,5852
2018-03-02T11:58:08.739Z,5868
2018-03-02T11:59:09.255Z,5844
2018-03-02T12:00:09.016Z,5840
2018-03-02T12:01:08.773Z,5804
2018-03-02T12:02:09.292Z,5776
2018-03-02T12:03:09.298Z,5808
2018-03-02T12:05:09.066Z,5812
2018-03-02T12:06:09.335Z,5764
2018-03-02T12:07:09.343Z,5752
2018-03-02T12:08:09.356Z,5728
2018-03-02T12:10:09.123Z,5704
2018-03-02T12:11:09.388Z,5684
2018-03-02T12:12:09.400Z,5740
2018-03-02T12:13:09.153Z,5784
2018-03-02T12:14:09.421Z,5760
2018-03-02T12:15:24.104Z,5744
2018-03-02T12:16:08.679Z,5720
2018-03-02T12:17:08.947Z,5724
2018-03-02T12:18:24.131Z,5712
2018-03-02T12:19:23.890Z,5684
2018-03-02T12:20:24.157Z,5684
2018-03-02T12:21:09.503Z,5664
2018-03-02T12:22:09.515Z,5668
2018-03-02T12:23:09.525Z,5700
2018-03-02T12:24:09.530Z,5680
2018-03-02T12:25:09.543Z,5672
2018-03-02T12:26:09.558Z,5688
2018-03-02T12:27:09.568Z,5716
2018-03-02T12:28:09.575Z,5728
2018-03-02T12:29:24.252Z,5696
2018-03-02T12:30:09.598Z,5688
2018-03-02T12:31:09.379Z,5680
2018-03-02T12:33:24.302Z,5676
2018-03-02T12:34:09.646Z,5676
2018-03-02T12:35:09.446Z,5692
2018-03-02T12:36:09.407Z,5668
2018-03-02T12:37:09.675Z,5664
2018-03-02T12:38:24.352Z,5620
2018-03-02T12:39:09.703Z,5628
2018-03-02T12:40:09.705Z,5576
2018-03-02T12:41:09.719Z,5596
2018-03-02T12:42:09.732Z,5592
2018-03-02T12:43:09.740Z,5568
2018-03-02T12:44:09.751Z,5556
2018-03-02T12:45:24.433Z,5544
2018-03-02T12:47:09.782Z,5568
2018-03-02T12:48:24.210Z,5604
2018-03-02T12:49:09.919Z,5584
2018-03-02T12:50:09.560Z,5572
2018-03-02T12:51:24.240Z,5564
2018-03-02T12:52:09.844Z,5520
2018-03-02T12:53:24.516Z,5544
2018-03-02T12:54:09.607Z,5608
2018-03-02T12:55:24.363Z,5612
2018-03-02T12:56:09.628Z,5556
2018-03-02T12:57:09.894Z,5540
2018-03-02T12:58:09.909Z,5516
2018-03-02T12:59:09.915Z,5520
2018-03-02T13:00:10.018Z,5488
2018-03-02T13:01:24.605Z,5500
2018-03-02T13:02:09.946Z,5508
2018-03-02T13:03:24.371Z,5496
2018-03-02T13:05:24.652Z,5500
2018-03-02T13:06:09.735Z,5484
2018-03-02T13:07:24.673Z,5536
2018-03-02T13:08:10.020Z,5520
2018-03-02T13:09:09.769Z,5580
2018-03-02T13:10:09.780Z,5572
2018-03-02T13:11:10.046Z,5528
2018-03-02T13:12:10.056Z,5452
2018-03-02T13:13:10.068Z,5472
2018-03-02T13:14:10.086Z,5456
2018-03-02T13:15:10.097Z,5440
2018-03-02T13:16:09.846Z,5364
2018-03-02T13:17:24.530Z,5380
2018-03-02T13:18:10.124Z,5444
2018-03-02T13:19:10.134Z,5396
2018-03-02T13:20:24.820Z,5436
2018-03-02T13:21:09.905Z,5404
2018-03-02T13:23:10.180Z,5412
2018-03-02T13:24:09.941Z,5416
2018-03-02T13:25:09.948Z,5396
2018-03-02T13:26:09.956Z,5348
2018-03-02T13:27:10.227Z,5316
2018-03-02T13:28:09.980Z,5340
2018-03-02T13:29:09.988Z,5332
2018-03-02T13:30:10.080Z,5332
2018-03-02T13:31:10.017Z,5304
2018-03-02T13:32:24.948Z,5284
2018-03-02T13:33:10.308Z,5296
2018-03-02T13:34:10.300Z,5276
2018-03-02T13:35:10.310Z,5248
2018-03-02T13:36:10.351Z,5240
2018-03-02T13:37:10.338Z,5236
2018-03-02T13:38:10.348Z,5216
2018-03-02T13:39:10.372Z,5204
2018-03-02T13:40:10.375Z,5164
2018-03-02T13:41:10.383Z,5176
2018-03-02T13:42:10.390Z,5176
2018-03-02T13:43:10.404Z,5212
2018-03-02T13:44:10.411Z,5212
2018-03-02T13:45:09.911Z,5220
2018-03-02T13:46:09.923Z,5196
2018-03-02T13:47:10.191Z,5220
2018-03-02T13:48:09.947Z,5124
2018-03-02T13:49:10.209Z,5084
2018-03-02T13:50:10.228Z,5088
2018-03-02T13:51:10.497Z,5028
2018-03-02T13:52:25.172Z,5108
2018-03-02T13:53:10.002Z,5092
2018-03-02T13:54:09.757Z,5084
2018-03-02T13:55:10.278Z,5124
2018-03-02T13:56:25.212Z,5132
2018-03-02T13:57:10.054Z,5116
2018-03-02T13:58:10.311Z,5072
2018-03-02T13:59:10.322Z,5064
2018-03-02T14:00:09.822Z,5056
2018-03-02T14:01:25.025Z,5032
2018-03-02T14:02:10.610Z,5048
2018-03-02T14:03:10.368Z,5060
2018-03-02T14:04:25.362Z,5016
2018-03-02T14:05:10.393Z,5020
2018-03-02T14:06:25.329Z,5008
2018-03-02T14:07:10.668Z,4988
2018-03-02T14:08:25.344Z,4928
2018-03-02T14:09:25.448Z,4928
2018-03-02T14:10:10.704Z,4892
2018-03-02T14:11:10.201Z,4892
2018-03-02T14:12:10.725Z,4844
2018-03-02T14:13:10.732Z,4804
2018-03-02T14:14:10.741Z,4812
2018-03-02T14:15:10.497Z,4816
2018-03-02T14:16:10.765Z,4800
2018-03-02T14:17:10.824Z,4784
2018-03-02T14:18:10.532Z,4764
2018-03-02T14:19:10.816Z,4804